Portada
METAR-TAF:

METAR-TAF

Aeropuertos :

New Century AirCenter

Olathe, Kansas, Estados Unidos

latitud: 38-49-28N, longitud: 094-53-13W, altitud: 331 m

Observación

El informe se hizo hace 20 minutos, a las 06:53 UTC
Viento 7 kt del sureste
Temperatura 24°C
Humedad 78%
Presión 1014 hPa
Visibilidad: 16.1 km
Cielo despejado

METAR: KIXD 070653Z AUTO 14007KT 10SM CLR 24/20 A2993 RMK AO2 SLP120 T02440200

Hora: 02:13 (07:13 UTC)

Pronóstico

El informe se hizo hace 1 hora y 53 minutos, a las 05:20 UTC
Pronóstico válido del 07 a las 06 UTC al 08 a las 06 UTC
Viento 10 kt del sur-sureste
Visibilidad: 10 km
Escasas nubes a una altura de 25000 ft

TAF: KIXD 070520Z 0706/0806 15010KT P6SM FEW250

Observaciones y pronósticos meteorológicos de más de 4000 aeropuertos (mensajes METAR y TAF).

Los puntos amarillos y rojos representan las estaciones disponibles.

Ponga el ratón en el punto deseado para ver el nombre de la estación.

Haga clic para ver las observaciones y los pronósticos meteorológicos.

Para cambiar el mapa : haga clic en los botones verdes con una cruz de color negro para hacer un zoom, en el botón verde con un guión para alejar o en las flechas verdes para mapas adyacentes.


METAR-TAF: